• Join FlightAware (Why Join?)
  • Login
  • US Flag 
08:21AM EDT


 

Airport Tracker/Info


-or-


 

Live Flight TrackerFlight Track Log ✈ LOF3416 ✈ 19-Jul-2013 ✈ KSGF - KORD

Flight Track Log - Related Links

Times and Time Zones

All times are in EDT time to prevent confusion due to time zone crossing. See the LOF3416 flight status page for this flight to view local times or setup timezone preferences in your user account.

Time Position Orientation Groundspeed Altitude Reporting Facility
EDT Latitude Longitude Course Direction KTS MPH feet Rate Location/Type
08:05PM 37.3214 -93.2083 34° Northeast 255 293 7,200  Level Kansas City Center
08:06PM 37.3861 -93.1611 30° Northeast 263 303 9,200 1,980 Climbing Kansas City Center
08:07PM 37.4589 -93.1325 17° North 268 308 11,300 1,860 Climbing Kansas City Center
08:08PM 37.7160 -92.9508 38° Northeast  Level FlightAware Approximate
08:08PM 37.5308 -93.1042 17° North 270 311 13,100  Level Kansas City Center
08:09PM 37.7937 -92.8731 38° Northeast  Level FlightAware Approximate
08:09PM 37.6031 -93.0728 19° North 272 313 14,800  Level Kansas City Center
08:10PM 37.6753 -93.0408 19° North 273 314 16,300 1,260 Climbing Kansas City Center
08:11PM 37.7406 -92.9881 33° Northeast 279 321 17,500 960 Climbing Kansas City Center
08:12PM 37.8225 -92.9139 36° Northeast 295 339 18,300 720 Climbing Kansas City Center
08:13PM 37.8947 -92.8458 37° Northeast 314 361 19,100 720 Climbing Kansas City Center
08:14PM 37.9694 -92.7758 36° Northeast 327 376 19,900 720 Climbing Kansas City Center
08:15PM 38.0372 -92.7122 36° Northeast 333 383 20,600 660 Climbing Kansas City Center
08:16PM 38.1139 -92.6383 37° Northeast 342 394 21,300 720 Climbing Kansas City Center
08:17PM 38.2031 -92.5542 37° Northeast 349 402 22,200 720 Climbing Kansas City Center
08:18PM 38.2831 -92.4775 37° Northeast 353 406 22,900 720 Climbing Kansas City Center
08:19PM 38.3639 -92.4011 37° Northeast 357 411 23,700 660 Climbing Kansas City Center
08:20PM 38.4439 -92.3236 37° Northeast 358 412 24,300 540 Climbing Kansas City Center
08:21PM 38.5247 -92.2458 37° Northeast 361 415 24,900 600 Climbing Kansas City Center
08:22PM 38.6242 -92.1497 37° Northeast 369 425 25,600 660 Climbing Kansas City Center
08:23PM 38.7061 -92.0708 37° Northeast 368 423 26,300 600 Climbing Kansas City Center
08:24PM 38.7886 -91.9894 38° Northeast 370 426 26,900 300 Climbing Kansas City Center
08:25PM 38.8719 -91.9083 37° Northeast 374 430 27,000  Climbing Kansas City Center
08:26PM 38.9600 -91.8236 37° Northeast 387 445 27,000  Level Kansas City Center
08:27PM 39.0508 -91.7353 37° Northeast 402 463 27,000  Level Kansas City Center
08:28PM 39.1433 -91.6422 38° Northeast 410 472 27,000  Level Kansas City Center
08:29PM 39.2367 -91.5511 37° Northeast 416 479 27,000  Level Kansas City Center
08:31PM 39.3314 -91.4575 37° Northeast 424 488 27,000  Level Kansas City Center
08:32PM 39.4253 -91.3653 37° Northeast 425 489 27,000  Level Kansas City Center
08:33PM 39.5378 -91.2528 38° Northeast 424 488 27,000  Level Kansas City Center
08:34PM 39.6317 -91.1575 38° Northeast 426 490 27,000  Level Kansas City Center
08:35PM 39.7267 -91.0639 37° Northeast 427 491 27,000  Level Kansas City Center
08:36PM 39.8278 -90.9614 38° Northeast 427 491 27,000  Level Kansas City Center
08:37PM 39.9228 -90.8667 37° Northeast 428 493 27,000  Level Kansas City Center
08:38PM 40.0172 -90.7717 38° Northeast 430 495 27,000  Level Kansas City Center
08:39PM 40.1108 -90.6747 38° Northeast 429 494 27,000  Level Kansas City Center
08:40PM 40.2075 -90.5786 37° Northeast 433 498 27,000  Level Kansas City Center
08:41PM 40.3017 -90.4811 38° Northeast 432 497 27,000  Level Kansas City Center
08:42PM 40.3783 -90.4033 38° Northeast 433 498 27,000  Level Chicago Center
08:43PM 40.4731 -90.3056 38° Northeast 434 499 27,000 -420 Level Chicago Center
08:44PM 40.5850 -90.1850 39° Northeast 431 496 26,200 -900 Descending Chicago Center
08:45PM 40.6761 -90.0642 45° Northeast 465 535 25,200 -1,020 Descending Chicago Center
08:46PM 40.7581 -89.9344 50° Northeast 466 536 24,200 -600 Descending Chicago Center
08:47PM 40.8372 -89.8047 51° Northeast 445 512 24,000 -540 Descending Chicago Center
08:48PM 40.9156 -89.6783 51° Northeast 442 509 23,100 -1,020 Descending Chicago Center
08:49PM 41.0064 -89.5353 50° Northeast 454 522 22,000 -1,020 Descending Chicago Center
08:50PM 41.0836 -89.4103 51° Northeast 444 511 21,000 -1,260 Descending Chicago Center
08:51PM 41.1592 -89.2872 51° Northeast 434 499 19,500 -2,280 Descending Chicago Center
08:52PM 41.2372 -89.1636 50° Northeast 415 478 16,300 -2,880 Descending Chicago Center
08:53PM 41.3028 -89.0497 53° Northeast 394 453 13,500 -2,520 Descending Chicago Center
08:54PM 41.3769 -88.9108 55° Northeast 386 444 11,100 -1,260 Descending Chicago Center
08:55PM 41.4381 -88.7983 54° Northeast 382 440 11,000 -60 Descending Chicago Center
08:56PM 41.5003 -88.6817 55° Northeast 387 445 11,000  Level Chicago Center
08:57PM 41.5614 -88.5675 54° Northeast 380 437 11,000  Level Chicago Center
08:58PM 41.6236 -88.4503 55° Northeast 390 449 11,000  Level Chicago Center
08:59PM 41.6872 -88.3344 54° Northeast 388 447 11,000  Level Chicago Center
09:00PM 41.7639 -88.2003 53° Northeast 378 435 11,000 -480 Level Chicago Center
09:01PM 41.8183 -88.1078 52° Northeast 322 371 10,000 -1,320 Descending Chicago Center
09:03PM 41.8833 -87.9667 58° Northeast 316 364 7,900 -1,260 Descending Chicago TRACON
09:04PM 41.8833 -87.8500 90° East 309 356 7,100 -600 Descending Chicago TRACON
09:04PM 41.8839 -87.7906 89° East 306 352 6,900 -960 Descending Chicago Center
09:05PM 41.8842 -87.6558 90° East 300 345 5,400 -960 Descending Chicago Center
09:06PM 41.8833 -87.5519 91° East 284 327 5,000 -240 Descending Chicago Center
09:08PM 41.8844 -87.4544 89° East 266 306 5,000  Level Chicago Center
09:09PM 41.8836 -87.3636 91° East 249 287 5,000  Level Chicago Center
09:10PM 41.9308 -87.3294 28° Northeast 220 253 5,000  Level Chicago Center
09:11PM 41.9661 -87.3892 308° West 181 208 5,000  Level Chicago Center
09:12PM 41.9689 -87.4475 274° West 169 194 5,000  Level Chicago Center
09:13PM 41.9689 -87.5069 270° West 163 188 5,000  Level Chicago Center
09:14PM 41.9683 -87.5681 269° West 164 189 5,000 -240 Level Chicago Center
09:15PM 41.9683 -87.6308 270° West 169 194 4,600 -900 Descending Chicago Center
09:16PM 41.9692 -87.7064 271° West 171 197 3,200 -1,080 Descending Chicago Center
09:17PM 41.9692 -87.7639 270° West 162 186 2,400 -840 Descending Chicago Center
09:18PM 41.9694 -87.8169 270° West 152 175 1,500 -540 Descending Chicago Center
09:19PM 41.9692 -87.8764 270° West 147 169 1,300 -240 Descending Chicago Center